createdAt,value
2023-01-22T00:01:39.868Z,100027.94
2023-01-22T00:03:46.569Z,100030.56
2023-01-22T00:05:52.665Z,100041.03
2023-01-22T00:07:55.918Z,100042.72
2023-01-22T00:10:00.401Z,100031.88
2023-01-22T00:12:03.608Z,100033.66
2023-01-22T00:14:06.789Z,100033.53
2023-01-22T00:16:12.474Z,100029.25
2023-01-22T00:18:15.768Z,100045.94
2023-01-22T00:20:20.410Z,100036.50
2023-01-22T00:22:23.627Z,100043.44
2023-01-22T00:24:26.647Z,100045.22
2023-01-22T00:26:29.541Z,100044.63
2023-01-22T00:28:32.673Z,100054.53
2023-01-22T00:30:35.693Z,100051.19
2023-01-22T00:32:38.550Z,100040.09
2023-01-22T00:34:41.506Z,100050.44
2023-01-22T00:36:45.827Z,100042.91
2023-01-22T00:38:52.107Z,100050.19
2023-01-22T00:40:54.998Z,100047.03
2023-01-22T00:42:58.177Z,100045.13
2023-01-22T00:45:00.999Z,100050.13
2023-01-22T00:47:04.103Z,100055.13
2023-01-22T00:49:06.956Z,100057.56
2023-01-22T00:51:10.566Z,100059.84
2023-01-22T00:53:15.356Z,100065.03
2023-01-22T00:55:18.417Z,100067.38
2023-01-22T00:57:22.271Z,100061.41
2023-01-22T00:59:25.407Z,100066.75
2023-01-22T01:01:28.708Z,100065.13
2023-01-22T01:03:34.288Z,100066.53
2023-01-22T01:05:37.330Z,100072.00
2023-01-22T01:07:40.267Z,100060.88
2023-01-22T01:09:44.579Z,100074.81
2023-01-22T01:11:47.647Z,100075.38
2023-01-22T01:13:51.977Z,100077.78
2023-01-22T01:16:00.896Z,100084.69
2023-01-22T01:18:04.095Z,100075.78
2023-01-22T01:20:07.945Z,100087.91
2023-01-22T01:22:11.167Z,100093.50
2023-01-22T01:24:15.626Z,100087.84
2023-01-22T01:26:20.771Z,100093.50
2023-01-22T01:28:25.128Z,100095.59
2023-01-22T01:30:28.077Z,100095.34
2023-01-22T01:32:31.087Z,100096.94
2023-01-22T01:34:34.169Z,100095.75
2023-01-22T01:36:49.130Z,100092.78
2023-01-22T01:38:53.037Z,100100.91
2023-01-22T01:40:56.054Z,100102.22
2023-01-22T01:43:00.609Z,100106.72
2023-01-22T01:45:19.617Z,100108.91
2023-01-22T01:47:32.626Z,100105.09
2023-01-22T01:49:38.391Z,100107.06
2023-01-22T01:51:41.287Z,100106.59
2023-01-22T01:53:46.765Z,100105.09
2023-01-22T01:55:50.746Z,100107.06
2023-01-22T01:57:55.763Z,100093.34
2023-01-22T02:00:04.749Z,100097.06
2023-01-22T02:02:17.134Z,100090.53
2023-01-22T02:04:20.183Z,100091.16
2023-01-22T02:06:23.168Z,100099.63
2023-01-22T02:08:26.568Z,100087.94
2023-01-22T02:10:29.622Z,100089.38
2023-01-22T02:12:34.290Z,100088.91
2023-01-22T02:14:42.287Z,100093.94
2023-01-22T02:16:46.647Z,100093.81
2023-01-22T02:18:50.200Z,100090.13
2023-01-22T02:20:59.956Z,100093.47
2023-01-22T02:23:02.967Z,100105.75
2023-01-22T02:25:07.807Z,100094.31
2023-01-22T02:27:10.807Z,100107.19
2023-01-22T02:29:14.768Z,100114.00
2023-01-22T02:31:17.711Z,100112.19
2023-01-22T02:33:20.557Z,100129.75
2023-01-22T02:35:23.477Z,100128.31
2023-01-22T02:37:27.839Z,100124.59
2023-01-22T02:39:32.208Z,100125.31
2023-01-22T02:41:38.377Z,100123.19
2023-01-22T02:43:41.447Z,100131.22
2023-01-22T02:45:44.423Z,100135.16
2023-01-22T02:47:47.896Z,100132.53
2023-01-22T02:49:50.729Z,100133.13
2023-01-22T02:51:53.808Z,100140.03
2023-01-22T02:53:59.286Z,100132.16
2023-01-22T02:56:06.158Z,100139.38
2023-01-22T02:58:09.398Z,100137.09
2023-01-22T03:00:15.253Z,100134.00
2023-01-22T03:02:18.455Z,100140.56
2023-01-22T03:04:23.347Z,100155.13
2023-01-22T03:06:28.047Z,100153.72
2023-01-22T03:08:33.937Z,100148.94
2023-01-22T03:10:38.287Z,100140.47
2023-01-22T03:12:59.933Z,100148.00
2023-01-22T03:15:21.489Z,100147.66
2023-01-22T03:17:43.151Z,100139.50
2023-01-22T03:20:04.987Z,100135.44
2023-01-22T03:22:08.007Z,100129.81
2023-01-22T03:24:10.927Z,100137.50
2023-01-22T03:26:16.287Z,100131.00
2023-01-22T03:28:19.705Z,100128.84
2023-01-22T03:30:30.407Z,100133.88
2023-01-22T03:32:34.073Z,100137.09
2023-01-22T03:34:37.651Z,100132.44
2023-01-22T03:36:41.847Z,100123.34
2023-01-22T03:38:46.607Z,100117.81
2023-01-22T03:40:53.837Z,100136.69
2023-01-22T03:42:59.890Z,100128.56
2023-01-22T03:45:03.594Z,100130.94
2023-01-22T03:47:08.099Z,100137.75
2023-01-22T03:49:13.627Z,100134.06
2023-01-22T03:51:18.083Z,100132.94
2023-01-22T03:53:20.967Z,100133.56
2023-01-22T03:55:25.775Z,100137.63
2023-01-22T03:57:31.286Z,100133.06
2023-01-22T03:59:35.789Z,100137.38
2023-01-22T04:01:39.334Z,100139.88
2023-01-22T04:03:42.737Z,100136.16
2023-01-22T04:05:47.272Z,100135.88
2023-01-22T04:07:51.126Z,100147.28
2023-01-22T04:09:57.808Z,100142.72
2023-01-22T04:12:01.417Z,100142.47
2023-01-22T04:14:04.727Z,100140.44
2023-01-22T04:16:12.126Z,100140.28
2023-01-22T04:18:41.647Z,100134.06
2023-01-22T04:21:03.190Z,100132.97
2023-01-22T04:23:15.607Z,100138.94
2023-01-22T04:25:18.726Z,100142.28
2023-01-22T04:27:21.547Z,100145.78
2023-01-22T04:29:27.455Z,100149.13
2023-01-22T04:31:32.308Z,100148.84
2023-01-22T04:33:55.616Z,100152.19
2023-01-22T04:36:02.708Z,100151.13
2023-01-22T04:38:07.916Z,100151.97
2023-01-22T04:40:12.007Z,100162.38
2023-01-22T04:42:15.068Z,100160.88
2023-01-22T04:44:18.288Z,100167.22
2023-01-22T04:46:21.539Z,100168.63
2023-01-22T04:48:26.587Z,100170.19
2023-01-22T04:50:32.736Z,100162.84
2023-01-22T04:52:35.668Z,100155.53
2023-01-22T04:54:38.649Z,100157.19
2023-01-22T04:56:41.597Z,100150.25
2023-01-22T04:58:44.607Z,100157.88
2023-01-22T05:00:49.591Z,100156.81
2023-01-22T05:02:57.611Z,100159.31
2023-01-22T05:05:02.076Z,100161.13
2023-01-22T05:07:05.057Z,100161.13
2023-01-22T05:09:08.072Z,100157.38
2023-01-22T05:11:25.617Z,100160.00
2023-01-22T05:13:33.326Z,100167.78
2023-01-22T05:15:36.592Z,100167.53
2023-01-22T05:17:44.847Z,100170.03
2023-01-22T05:19:48.098Z,100176.41
2023-01-22T05:21:56.429Z,100160.47
2023-01-22T05:23:59.472Z,100165.47
2023-01-22T05:26:04.767Z,100163.56
2023-01-22T05:28:23.607Z,100164.25
2023-01-22T05:30:43.918Z,100159.84
2023-01-22T05:32:59.809Z,100164.53
2023-01-22T05:35:05.080Z,100169.81
2023-01-22T05:37:12.576Z,100169.53
2023-01-22T05:39:16.927Z,100174.53
2023-01-22T05:41:20.097Z,100174.44
2023-01-22T05:43:23.654Z,100172.88
2023-01-22T05:45:31.542Z,100173.59
2023-01-22T05:47:52.830Z,100178.34
2023-01-22T05:50:22.137Z,100182.78
2023-01-22T05:52:38.527Z,100181.00
2023-01-22T05:54:41.497Z,100182.22
2023-01-22T05:56:44.646Z,100189.75
2023-01-22T05:58:48.256Z,100194.16
2023-01-22T06:00:53.167Z,100196.09
2023-01-22T06:03:01.331Z,100191.66
2023-01-22T06:05:10.377Z,100200.38
2023-01-22T06:07:13.272Z,100200.38
2023-01-22T06:09:17.848Z,100204.00
2023-01-22T06:11:20.813Z,100193.19
2023-01-22T06:13:23.820Z,100196.28
2023-01-22T06:15:30.420Z,100196.28
2023-01-22T06:17:45.329Z,100205.16
2023-01-22T06:19:50.272Z,100208.78
2023-01-22T06:21:54.789Z,100214.63
2023-01-22T06:24:06.529Z,100217.97
2023-01-22T06:26:11.048Z,100208.69
2023-01-22T06:28:14.930Z,100220.66
2023-01-22T06:30:20.376Z,100221.50
2023-01-22T06:32:23.529Z,100227.72
2023-01-22T06:34:27.908Z,100219.69
2023-01-22T06:36:31.329Z,100224.56
2023-01-22T06:38:34.613Z,100228.75
2023-01-22T06:40:39.619Z,100230.69
2023-01-22T06:42:45.022Z,100229.47
2023-01-22T06:44:48.197Z,100239.03
2023-01-22T06:46:51.258Z,100238.09
2023-01-22T06:49:01.991Z,100249.34
2023-01-22T06:51:05.363Z,100248.25
2023-01-22T06:53:08.478Z,100248.00
2023-01-22T06:55:12.371Z,100248.94
2023-01-22T06:57:15.678Z,100248.84
2023-01-22T06:59:20.169Z,100249.41
2023-01-22T07:01:23.353Z,100242.06
2023-01-22T07:03:26.620Z,100245.41
2023-01-22T07:05:29.481Z,100256.81
2023-01-22T07:07:32.470Z,100251.38
2023-01-22T07:09:35.640Z,100251.38
2023-01-22T07:11:38.610Z,100253.19
2023-01-22T07:13:41.569Z,100251.81
2023-01-22T07:15:46.013Z,100256.00
2023-01-22T07:17:51.386Z,100255.06
2023-01-22T07:19:54.394Z,100260.06
2023-01-22T07:21:58.688Z,100260.38
2023-01-22T07:24:01.895Z,100258.56
2023-01-22T07:26:05.230Z,100265.38
2023-01-22T07:28:08.765Z,100257.31
2023-01-22T07:30:12.708Z,100260.19
2023-01-22T07:32:17.478Z,100257.75
2023-01-22T07:34:20.708Z,100253.31
2023-01-22T07:36:24.213Z,100259.31
2023-01-22T07:38:28.607Z,100268.91
2023-01-22T07:40:31.803Z,100285.00
2023-01-22T07:42:34.808Z,100286.38
2023-01-22T07:44:40.633Z,100282.78
2023-01-22T07:46:43.610Z,100294.47
2023-01-22T07:48:47.976Z,100300.03
2023-01-22T07:50:50.996Z,100306.72
2023-01-22T07:52:54.652Z,100298.91
2023-01-22T07:54:57.499Z,100297.69
2023-01-22T07:57:00.389Z,100295.88
2023-01-22T07:59:03.327Z,100297.28
2023-01-22T08:01:06.957Z,100309.94
2023-01-22T08:03:14.779Z,100311.72
2023-01-22T08:05:19.352Z,100320.63
2023-01-22T08:07:23.748Z,100325.63
2023-01-22T08:09:26.759Z,100319.84
2023-01-22T08:11:29.769Z,100327.22
2023-01-22T08:13:32.828Z,100318.22
2023-01-22T08:15:36.030Z,100314.59
2023-01-22T08:17:39.731Z,100312.28
2023-01-22T08:19:42.660Z,100311.44
2023-01-22T08:21:47.249Z,100311.94
2023-01-22T08:23:50.210Z,100324.88
2023-01-22T08:25:53.213Z,100325.47
2023-01-22T08:27:56.588Z,100326.88
2023-01-22T08:29:59.609Z,100324.81
2023-01-22T08:32:02.561Z,100325.66
2023-01-22T08:34:05.792Z,100319.66
2023-01-22T08:36:09.769Z,100321.22
2023-01-22T08:38:14.319Z,100320.81
2023-01-22T08:40:18.838Z,100333.09
2023-01-22T08:42:21.983Z,100325.72
2023-01-22T08:44:25.260Z,100317.38
2023-01-22T08:46:28.538Z,100311.28
2023-01-22T08:48:31.491Z,100322.66
2023-01-22T08:50:34.500Z,100318.53
2023-01-22T08:52:37.450Z,100318.91
2023-01-22T08:54:41.841Z,100313.22
2023-01-22T08:56:44.688Z,100303.63
2023-01-22T08:58:50.353Z,100298.31
2023-01-22T09:00:52.962Z,100302.53
2023-01-22T09:02:59.198Z,100293.75
2023-01-22T09:05:02.069Z,100304.78
2023-01-22T09:07:05.136Z,100304.78
2023-01-22T09:09:08.239Z,100310.22
2023-01-22T09:11:12.707Z,100302.72
2023-01-22T09:13:15.582Z,100303.16
2023-01-22T09:15:18.688Z,100297.56
2023-01-22T09:17:21.576Z,100293.53
2023-01-22T09:19:25.039Z,100288.25
2023-01-22T09:21:27.938Z,100288.94
2023-01-22T09:23:30.969Z,100289.09
2023-01-22T09:25:33.828Z,100286.03
2023-01-22T09:27:38.413Z,100292.97
2023-01-22T09:29:41.250Z,100283.38
2023-01-22T09:31:44.294Z,100285.59
2023-01-22T09:33:47.280Z,100282.00
2023-01-22T09:35:50.238Z,100286.28
2023-01-22T09:37:53.248Z,100289.34
2023-01-22T09:39:56.231Z,100282.94
2023-01-22T09:42:01.423Z,100295.34
2023-01-22T09:44:11.864Z,100295.78
2023-01-22T09:46:20.425Z,100294.22
2023-01-22T09:48:25.077Z,100298.97
2023-01-22T09:50:30.738Z,100302.59
2023-01-22T09:52:37.978Z,100298.41
2023-01-22T09:54:42.607Z,100296.47
2023-01-22T09:56:47.709Z,100296.63
2023-01-22T09:58:52.247Z,100297.00
2023-01-22T10:01:00.748Z,100296.63
2023-01-22T10:03:07.393Z,100302.44
2023-01-22T10:05:20.499Z,100293.50
2023-01-22T10:07:26.268Z,100293.97
2023-01-22T10:09:32.249Z,100295.34
2023-01-22T10:11:35.177Z,100295.06
2023-01-22T10:13:39.624Z,100295.06
2023-01-22T10:15:42.974Z,100291.72
2023-01-22T10:17:48.567Z,100293.38
2023-01-22T10:19:56.177Z,100292.69
2023-01-22T10:22:01.748Z,100296.84
2023-01-22T10:24:04.748Z,100301.31
2023-01-22T10:26:16.704Z,100302.59
2023-01-22T10:28:26.015Z,100302.16
2023-01-22T10:30:30.646Z,100309.69
2023-01-22T10:32:33.866Z,100303.41
2023-01-22T10:34:38.251Z,100298.81
2023-01-22T10:36:41.177Z,100302.81
2023-01-22T10:38:44.089Z,100303.41
2023-01-22T10:40:46.968Z,100308.72
2023-01-22T10:43:01.302Z,100314.00
2023-01-22T10:45:16.788Z,100311.06
2023-01-22T10:47:22.855Z,100304.53
2023-01-22T10:49:27.127Z,100304.53
2023-01-22T10:51:35.051Z,100295.88
2023-01-22T10:53:44.399Z,100309.09
2023-01-22T10:55:54.207Z,100304.91
2023-01-22T10:58:05.091Z,100309.66
2023-01-22T11:00:23.837Z,100307.53
2023-01-22T11:02:27.163Z,100308.53
2023-01-22T11:04:32.248Z,100308.38
2023-01-22T11:06:42.314Z,100312.00
2023-01-22T11:08:50.654Z,100312.28
2023-01-22T11:10:57.047Z,100299.72
2023-01-22T11:13:06.419Z,100297.78
2023-01-22T11:15:21.708Z,100293.59
2023-01-22T11:17:31.607Z,100301.13
2023-01-22T11:19:41.396Z,100298.94
2023-01-22T11:21:47.809Z,100289.72
2023-01-22T11:23:56.373Z,100292.31
2023-01-22T11:26:10.168Z,100284.94
2023-01-22T11:28:34.089Z,100295.25
2023-01-22T11:30:53.902Z,100290.94
2023-01-22T11:33:05.650Z,100294.41
2023-01-22T11:35:19.623Z,100296.50
2023-01-22T11:37:46.614Z,100300.53
2023-01-22T11:40:01.468Z,100294.44
2023-01-22T11:42:13.855Z,100296.38
2023-01-22T11:44:41.118Z,100290.13
2023-01-22T11:47:01.367Z,100294.19
2023-01-22T11:49:14.048Z,100296.38
2023-01-22T11:51:24.754Z,100286.78
2023-01-22T11:53:48.748Z,100292.09
2023-01-22T11:56:11.128Z,100289.44
2023-01-22T11:58:25.129Z,100297.09
2023-01-22T12:00:42.657Z,100287.91
2023-01-22T12:03:21.174Z,100292.22
2023-01-22T12:05:36.727Z,100293.22
2023-01-22T12:07:58.153Z,100298.22
2023-01-22T12:10:23.500Z,100296.97
2023-01-22T12:12:41.892Z,100304.22
2023-01-22T12:15:11.790Z,100296.25
2023-01-22T12:17:25.683Z,100293.63
2023-01-22T12:19:47.850Z,100304.19
2023-01-22T12:21:58.692Z,100300.31
2023-01-22T12:24:09.507Z,100302.81
2023-01-22T12:26:18.158Z,100305.06
2023-01-22T12:28:27.008Z,100308.72
2023-01-22T12:30:38.333Z,100302.69
2023-01-22T12:32:46.908Z,100310.34
2023-01-22T12:34:55.657Z,100320.09
2023-01-22T12:37:00.819Z,100315.66
2023-01-22T12:39:14.064Z,100323.91
2023-01-22T12:41:41.458Z,100321.38
2023-01-22T12:43:51.040Z,100336.00
2023-01-22T12:45:59.382Z,100330.31
2023-01-22T12:48:11.969Z,100321.81
2023-01-22T12:50:19.486Z,100334.19
2023-01-22T12:52:33.112Z,100327.81
2023-01-22T12:54:37.116Z,100333.91
2023-01-22T12:56:41.527Z,100337.81
2023-01-22T12:58:44.607Z,100340.75
2023-01-22T13:00:47.590Z,100341.28
2023-01-22T13:02:50.972Z,100349.78
2023-01-22T13:04:54.778Z,100346.47
2023-01-22T13:07:21.048Z,100344.63
2023-01-22T13:09:26.096Z,100348.13
2023-01-22T13:11:32.158Z,100352.16
2023-01-22T13:13:44.743Z,100337.53
2023-01-22T13:15:55.014Z,100351.34
2023-01-22T13:18:07.101Z,100342.28
2023-01-22T13:20:16.940Z,100354.69
2023-01-22T13:22:24.045Z,100350.50
2023-01-22T13:24:27.128Z,100355.78
2023-01-22T13:26:31.887Z,100360.94
2023-01-22T13:28:36.297Z,100354.69
2023-01-22T13:30:39.342Z,100357.19
2023-01-22T13:32:42.428Z,100346.88
2023-01-22T13:34:45.430Z,100343.66
2023-01-22T13:36:50.589Z,100348.53
2023-01-22T13:38:55.335Z,100350.50
2023-01-22T13:41:00.914Z,100356.22
2023-01-22T13:43:06.308Z,100352.03
2023-01-22T13:45:19.771Z,100353.28
2023-01-22T13:47:28.782Z,100358.88
2023-01-22T13:49:33.648Z,100351.88
2023-01-22T13:51:37.418Z,100360.22
2023-01-22T13:53:43.311Z,100365.13
2023-01-22T13:55:46.583Z,100370.56
2023-01-22T13:57:51.670Z,100375.41
2023-01-22T13:59:56.157Z,100371.41
2023-01-22T14:02:11.550Z,100370.69
2023-01-22T14:04:32.388Z,100372.22
2023-01-22T14:06:46.525Z,100376.69
2023-01-22T14:08:50.879Z,100376.81
2023-01-22T14:10:57.939Z,100373.19
2023-01-22T14:13:01.828Z,100367.06
2023-01-22T14:15:15.070Z,100372.91
2023-01-22T14:17:24.258Z,100364.41
2023-01-22T14:19:27.248Z,100375.41
2023-01-22T14:21:30.660Z,100380.16
2023-01-22T14:23:34.120Z,100370.56
2023-01-22T14:25:37.829Z,100365.66
2023-01-22T14:27:43.271Z,100379.47
2023-01-22T14:29:46.358Z,100380.44
2023-01-22T14:31:49.373Z,100377.50
2023-01-22T14:33:53.848Z,100388.38
2023-01-22T14:35:57.298Z,100393.81
2023-01-22T14:38:00.317Z,100401.63
2023-01-22T14:40:04.209Z,100403.44
2023-01-22T14:42:07.114Z,100404.81
2023-01-22T14:44:11.177Z,100407.88
2023-01-22T14:46:14.059Z,100401.88
2023-01-22T14:48:19.629Z,100407.06
2023-01-22T14:50:23.837Z,100416.25
2023-01-22T14:52:26.901Z,100417.34
2023-01-22T14:54:29.891Z,100419.47
2023-01-22T14:56:32.890Z,100413.16
2023-01-22T14:58:36.575Z,100425.75
2023-01-22T15:00:40.121Z,100430.19
2023-01-22T15:02:43.172Z,100427.25
2023-01-22T15:04:46.860Z,100428.50
2023-01-22T15:06:51.311Z,100427.69
2023-01-22T15:08:54.367Z,100436.59
2023-01-22T15:11:00.208Z,100440.09
2023-01-22T15:13:03.206Z,100442.72
2023-01-22T15:15:09.300Z,100443.13
2023-01-22T15:17:12.238Z,100444.28
2023-01-22T15:19:17.551Z,100446.78
2023-01-22T15:21:21.450Z,100452.91
2023-01-22T15:23:25.979Z,100454.00
2023-01-22T15:25:29.270Z,100459.56
2023-01-22T15:27:32.198Z,100460.41
2023-01-22T15:29:35.268Z,100463.06
2023-01-22T15:31:38.575Z,100470.28
2023-01-22T15:33:41.939Z,100465.84
2023-01-22T15:35:45.158Z,100468.50
2023-01-22T15:37:48.860Z,100478.38
2023-01-22T15:39:53.309Z,100471.69
2023-01-22T15:41:56.305Z,100480.03
2023-01-22T15:44:01.767Z,100484.63
2023-01-22T15:46:05.080Z,100481.97
2023-01-22T15:48:08.464Z,100488.09
2023-01-22T15:50:12.288Z,100486.53
2023-01-22T15:52:15.175Z,100489.78
2023-01-22T15:54:18.098Z,100493.13
2023-01-22T15:56:27.083Z,100484.50
2023-01-22T15:58:32.168Z,100500.38
2023-01-22T16:00:36.412Z,100497.97
2023-01-22T16:02:40.712Z,100497.28
2023-01-22T16:04:44.247Z,100497.97
2023-01-22T16:06:47.971Z,100501.72
2023-01-22T16:08:53.136Z,100506.06
2023-01-22T16:10:56.762Z,100504.50
2023-01-22T16:13:03.193Z,100513.28
2023-01-22T16:15:09.218Z,100502.56
2023-01-22T16:17:12.047Z,100511.50
2023-01-22T16:19:15.432Z,100507.44
2023-01-22T16:21:20.742Z,100517.03
2023-01-22T16:23:24.871Z,100517.59
2023-01-22T16:25:28.609Z,100520.13
2023-01-22T16:27:31.951Z,100515.78
2023-01-22T16:29:36.827Z,100518.44
2023-01-22T16:31:39.978Z,100516.88
2023-01-22T16:33:45.045Z,100525.53
2023-01-22T16:35:48.206Z,100532.75
2023-01-22T16:37:51.164Z,100536.25
2023-01-22T16:39:54.155Z,100541.31
2023-01-22T16:41:57.333Z,100538.91
2023-01-22T16:44:02.068Z,100545.03
2023-01-22T16:46:06.417Z,100551.88
2023-01-22T16:48:09.477Z,100551.88
2023-01-22T16:50:12.415Z,100556.34
2023-01-22T16:52:22.381Z,100550.91
2023-01-22T16:54:30.600Z,100556.19
2023-01-22T16:56:33.768Z,100550.06
2023-01-22T16:58:37.326Z,100543.94
2023-01-22T17:00:40.285Z,100549.09
2023-01-22T17:02:44.575Z,100549.25
2023-01-22T17:04:47.593Z,100555.34
2023-01-22T17:06:52.087Z,100553.69
2023-01-22T17:08:55.337Z,100560.63
2023-01-22T17:10:58.300Z,100554.38
2023-01-22T17:13:01.156Z,100561.34
2023-01-22T17:15:04.347Z,100554.38
2023-01-22T17:17:08.886Z,100557.88
2023-01-22T17:19:13.647Z,100552.69
2023-01-22T17:21:18.315Z,100569.28
2023-01-22T17:23:21.178Z,100551.47
2023-01-22T17:25:24.080Z,100558.59
2023-01-22T17:27:26.878Z,100562.75
2023-01-22T17:29:32.215Z,100562.06
2023-01-22T17:31:35.289Z,100576.25
2023-01-22T17:33:38.920Z,100582.25
2023-01-22T17:35:43.164Z,100585.06
2023-01-22T17:37:46.324Z,100585.06
2023-01-22T17:39:50.965Z,100587.00
2023-01-22T17:41:54.117Z,100593.00
2023-01-22T17:43:58.971Z,100593.94
2023-01-22T17:46:01.971Z,100600.22
2023-01-22T17:48:05.267Z,100601.75
2023-01-22T17:50:09.287Z,100606.09
2023-01-22T17:52:14.837Z,100610.66
2023-01-22T17:54:17.657Z,100612.75
2023-01-22T17:56:22.398Z,100621.41
2023-01-22T17:58:25.287Z,100623.06
2023-01-22T18:00:28.166Z,100631.84
2023-01-22T18:02:31.359Z,100627.13
2023-01-22T18:04:35.257Z,100627.50
2023-01-22T18:06:39.496Z,100628.22
2023-01-22T18:08:44.050Z,100622.34
2023-01-22T18:10:46.997Z,100629.34
2023-01-22T18:12:49.796Z,100623.19
2023-01-22T18:14:52.677Z,100625.69
2023-01-22T18:16:58.208Z,100637.28
2023-01-22T18:19:03.696Z,100641.19
2023-01-22T18:21:07.755Z,100637.69
2023-01-22T18:23:11.006Z,100636.03
2023-01-22T18:25:15.458Z,100640.91
2023-01-22T18:27:18.425Z,100650.78
2023-01-22T18:29:21.399Z,100648.28
2023-01-22T18:31:25.861Z,100651.38
2023-01-22T18:33:28.827Z,100651.25
2023-01-22T18:35:34.898Z,100656.56
2023-01-22T18:37:38.319Z,100656.66
2023-01-22T18:39:41.368Z,100661.38
2023-01-22T18:41:47.345Z,100669.19
2023-01-22T18:43:53.719Z,100668.94
2023-01-22T18:46:02.063Z,100662.66
2023-01-22T18:48:05.726Z,100667.94
2023-01-22T18:50:12.252Z,100668.09
2023-01-22T18:52:15.608Z,100672.81
2023-01-22T18:54:18.572Z,100674.22
2023-01-22T18:56:21.926Z,100675.31
2023-01-22T18:58:34.277Z,100687.03
2023-01-22T19:00:38.266Z,100693.13
2023-01-22T19:02:41.530Z,100694.56
2023-01-22T19:04:44.459Z,100691.78
2023-01-22T19:06:52.178Z,100695.06
2023-01-22T19:08:57.076Z,100697.47
2023-01-22T19:11:06.707Z,100700.94
2023-01-22T19:13:10.005Z,100695.53
2023-01-22T19:15:14.326Z,100699.41
2023-01-22T19:17:17.489Z,100696.63
2023-01-22T19:19:21.841Z,100699.13
2023-01-22T19:21:25.787Z,100702.50
2023-01-22T19:23:28.717Z,100699.72
2023-01-22T19:25:32.037Z,100700.41
2023-01-22T19:27:35.010Z,100702.81
2023-01-22T19:29:38.008Z,100706.56
2023-01-22T19:31:46.208Z,100706.00
2023-01-22T19:33:51.887Z,100710.44
2023-01-22T19:35:54.842Z,100711.00
2023-01-22T19:37:57.847Z,100708.25
2023-01-22T19:40:00.767Z,100708.25
2023-01-22T19:42:05.447Z,100709.34
2023-01-22T19:44:09.779Z,100716.31
2023-01-22T19:46:14.426Z,100714.13
2023-01-22T19:48:18.988Z,100715.94
2023-01-22T19:50:25.489Z,100715.94
2023-01-22T19:52:28.808Z,100714.13
2023-01-22T19:54:31.968Z,100716.19
2023-01-22T19:56:37.250Z,100720.88
2023-01-22T19:58:40.177Z,100718.50
2023-01-22T20:00:43.143Z,100721.03
2023-01-22T20:02:46.367Z,100716.56
2023-01-22T20:04:50.726Z,100716.31
2023-01-22T20:06:57.798Z,100713.66
2023-01-22T20:09:00.728Z,100713.56
2023-01-22T20:11:05.007Z,100711.28
2023-01-22T20:13:09.965Z,100714.66
2023-01-22T20:15:14.874Z,100716.06
2023-01-22T20:17:18.527Z,100716.78
2023-01-22T20:19:21.746Z,100715.22
2023-01-22T20:21:27.337Z,100722.31
2023-01-22T20:23:30.382Z,100720.78
2023-01-22T20:25:33.372Z,100720.88
2023-01-22T20:27:36.769Z,100729.81
2023-01-22T20:29:41.002Z,100733.16
2023-01-22T20:31:45.044Z,100733.31
2023-01-22T20:33:48.141Z,100730.53
2023-01-22T20:35:51.037Z,100735.81
2023-01-22T20:37:55.411Z,100733.31
2023-01-22T20:40:00.318Z,100738.84
2023-01-22T20:42:03.267Z,100748.59
2023-01-22T20:44:06.858Z,100747.63
2023-01-22T20:46:13.307Z,100751.38
2023-01-22T20:48:17.479Z,100751.50
2023-01-22T20:50:20.668Z,100752.47
2023-01-22T20:52:23.657Z,100756.09
2023-01-22T20:54:28.570Z,100754.16
2023-01-22T20:56:33.188Z,100755.84
2023-01-22T20:58:36.798Z,100758.72
2023-01-22T21:00:40.179Z,100765.09
2023-01-22T21:02:43.089Z,100767.75
2023-01-22T21:04:46.508Z,100768.38
2023-01-22T21:06:49.358Z,100766.53
2023-01-22T21:08:56.458Z,100764.72
2023-01-22T21:11:02.702Z,100775.19
2023-01-22T21:13:05.578Z,100770.75
2023-01-22T21:15:09.889Z,100769.19
2023-01-22T21:17:12.887Z,100772.66
2023-01-22T21:19:22.109Z,100780.63
2023-01-22T21:21:25.690Z,100781.31
2023-01-22T21:23:28.547Z,100776.16
2023-01-22T21:25:31.430Z,100780.88
2023-01-22T21:27:35.849Z,100786.75
2023-01-22T21:29:39.808Z,100791.56
2023-01-22T21:31:43.706Z,100787.97
2023-01-22T21:33:47.147Z,100788.91
2023-01-22T21:35:50.451Z,100798.56
2023-01-22T21:37:53.459Z,100794.50
2023-01-22T21:39:56.347Z,100789.44
2023-01-22T21:42:19.621Z,100781.50
2023-01-22T21:44:42.527Z,100783.06
2023-01-22T21:46:46.586Z,100804.00
2023-01-22T21:48:49.817Z,100807.44
2023-01-22T21:50:52.786Z,100816.09
2023-01-22T21:52:55.733Z,100815.72
2023-01-22T21:54:59.457Z,100822.00
2023-01-22T21:57:03.245Z,100821.16
2023-01-22T21:59:06.191Z,100824.88
2023-01-22T22:01:11.410Z,100824.88
2023-01-22T22:03:16.351Z,100824.88
2023-01-22T22:05:19.448Z,100827.66
2023-01-22T22:07:22.347Z,100828.75
2023-01-22T22:09:27.467Z,100841.84
2023-01-22T22:11:30.578Z,100854.00
2023-01-22T22:13:35.435Z,100853.16
2023-01-22T22:15:39.297Z,100855.81
2023-01-22T22:17:45.127Z,100858.44
2023-01-22T22:19:48.217Z,100860.28
2023-01-22T22:21:51.519Z,100866.53
2023-01-22T22:23:57.317Z,100856.78
2023-01-22T22:26:01.047Z,100859.66
2023-01-22T22:28:04.455Z,100860.50
2023-01-22T22:30:08.809Z,100861.34
2023-01-22T22:32:12.017Z,100864.00
2023-01-22T22:34:16.451Z,100873.03
2023-01-22T22:36:21.696Z,100867.72
2023-01-22T22:38:24.557Z,100868.72
2023-01-22T22:40:27.567Z,100870.25
2023-01-22T22:42:30.968Z,100866.31
2023-01-22T22:44:35.958Z,100860.88
2023-01-22T22:46:40.288Z,100862.00
2023-01-22T22:48:43.817Z,100850.28
2023-01-22T22:50:48.350Z,100850.19
2023-01-22T22:52:51.369Z,100846.56
2023-01-22T22:54:54.216Z,100841.53
2023-01-22T22:56:57.210Z,100845.00
2023-01-22T22:59:04.015Z,100841.06
2023-01-22T23:01:08.380Z,100842.03
2023-01-22T23:03:11.256Z,100840.25
2023-01-22T23:05:14.187Z,100848.19
2023-01-22T23:07:18.778Z,100850.69
2023-01-22T23:09:21.814Z,100852.34
2023-01-22T23:11:27.262Z,100843.19
2023-01-22T23:13:30.288Z,100845.84
2023-01-22T23:15:34.007Z,100850.44
2023-01-22T23:17:36.970Z,100848.63
2023-01-22T23:19:39.929Z,100843.06
2023-01-22T23:21:43.173Z,100840.56
2023-01-22T23:23:47.787Z,100842.25
2023-01-22T23:25:50.857Z,100844.06
2023-01-22T23:27:55.902Z,100848.03
2023-01-22T23:29:58.758Z,100856.31
2023-01-22T23:32:01.808Z,100854.38
2023-01-22T23:34:06.977Z,100857.16
2023-01-22T23:36:12.408Z,100863.88
2023-01-22T23:38:15.568Z,100866.38
2023-01-22T23:40:20.304Z,100865.31
2023-01-22T23:42:23.579Z,100871.31
2023-01-22T23:44:26.846Z,100886.34
2023-01-22T23:46:31.199Z,100888.03
2023-01-22T23:48:34.168Z,100890.81
2023-01-22T23:50:37.090Z,100891.19
2023-01-22T23:52:39.878Z,100885.75
2023-01-22T23:54:43.019Z,100884.81